Ohio State University Airport
KOSU : now visible

Airfield :











YOU CAN JOIN US ON...

 
LOGIN :

Register | Disclaimer

   EN    FR    IT 

 









Legend :    VFR   Marginal VFR   IFR   Intensive IFR   Very Intensive IFR
Visi :
Ceiling :
>= 8 km
>= 3000ft
5 to 8 km
1000 to 3000 ft
1500m to 5 km
500 to 1000 ft
800 to 1500m
200 to 500 ft
< 800m
< 200 ft
Symbols :   Thunderstorms  Fog  Heavy snow  Heavy precipitations  Wind > 20 kt







- Airport Elevation : 905 ft


KOSU - Ohio State University

CURRENT METAR :
  • 211553Z 28007KT 10SM OVC015 08/05 A3009 RMK AO2 SLP192 T00830050

EXPIRED METARs :
  • 211543Z 25005KT 10SM OVC015 08/05 A3009 RMK AO2 T00830050
  • 211453Z 23007KT 10SM OVC014 08/04 A3008 RMK AO2 SLP188 T00780044 51022
  • 211353Z 24006KT 10SM OVC014 07/04 A3005 RMK AO2 SLP180 T00720039

TAF N/A
KZID FIR / North America



MET'MAP, your aeronautical weather chart ! - Copyright ORBIFLY December 2007 - Disclaimer

ORBIFLY MET'MAP TEAM :

Programming & Development : Alexandra Zaïnal
Concept & Development : Baudouin d'Aumeries
Co-Development & Prog : Marc-Olivier Méhu
Technical & hardware support : Manuel Goepfert

Contact : metmap@orbifly.com




SOURCES & CREDITS :

   NOAA       Earth
Advisory